Time;durP1;ratioP1;P1;durP2;ratioP2;P2;SDS_P1;SDS_P2;PMS_P1;PMS_P2;Temp;Humidity;BMP_temperature;BMP_pressure;BME280_temperature;BME280_humidity;BME280_pressure;Samples;Min_cycle;Max_cycle;Signal;HPM_P1;HPM_P2
2022/06/12 00:02:00;;;;;;;7.75;4.45;;;19.50;99.90;;;;;;4997910;28;20227;-72
2022/06/12 00:04:27;;;;;;;6.43;3.80;;;19.50;99.90;;;;;;5004850;28;20215;-72
2022/06/12 00:06:55;;;;;;;6.55;3.45;;;19.50;99.90;;;;;;4999595;28;20672;-72
2022/06/12 00:09:22;;;;;;;5.40;3.97;;;19.40;99.90;;;;;;5011942;28;20652;-72
2022/06/12 00:11:49;;;;;;;8.88;5.82;;;19.40;99.90;;;;;;5014275;28;20576;-71
2022/06/12 00:14:17;;;;;;;8.65;4.78;;;19.40;99.90;;;;;;5010386;28;20246;-72
2022/06/12 00:16:46;;;;;;;9.68;5.43;;;19.40;99.90;;;;;;5007782;28;20199;-73
2022/06/12 00:19:14;;;;;;;6.55;4.47;;;19.40;99.90;;;;;;5000370;28;20235;-73
2022/06/12 00:21:42;;;;;;;7.15;3.85;;;19.40;99.90;;;;;;5007227;28;20223;-72
2022/06/12 00:24:12;;;;;;;6.25;3.97;;;19.30;99.90;;;;;;5000649;28;20216;-72
2022/06/12 00:26:42;;;;;;;6.25;3.88;;;19.40;99.90;;;;;;4994463;28;20311;-72
2022/06/12 00:29:11;;;;;;;11.85;6.95;;;19.30;99.90;;;;;;5001544;28;20234;-72
2022/06/12 00:31:41;;;;;;;9.93;6.72;;;19.30;99.90;;;;;;5011976;28;20204;-72
2022/06/12 00:34:09;;;;;;;12.30;6.80;;;19.30;99.90;;;;;;4995586;28;20210;-72
2022/06/12 00:36:36;;;;;;;11.50;7.82;;;19.30;99.90;;;;;;5013331;28;20211;-72
2022/06/12 00:39:05;;;;;;;9.35;5.75;;;19.30;99.90;;;;;;5001157;28;20611;-72
2022/06/12 00:41:34;;;;;;;7.78;5.53;;;19.20;99.90;;;;;;5003471;28;20227;-72
2022/06/12 00:44:01;;;;;;;9.63;5.78;;;19.20;99.90;;;;;;4998330;28;20667;-72
2022/06/12 00:46:37;;;;;;;8.57;5.68;;;19.10;99.90;;;;;;5010163;28;20207;-72
2022/06/12 00:49:09;;;;;;;9.05;5.53;;;19.10;99.90;;;;;;5001194;28;20210;-72
2022/06/12 00:51:36;;;;;;;6.55;4.72;;;19.00;99.90;;;;;;4994508;28;20203;-72
2022/06/12 00:54:06;;;;;;;9.48;5.72;;;19.00;99.90;;;;;;5007113;28;20201;-72
2022/06/12 00:56:36;;;;;;;8.10;5.88;;;18.90;99.90;;;;;;5000116;28;20215;-72
2022/06/12 00:59:09;;;;;;;8.88;5.57;;;18.90;99.90;;;;;;5004931;28;20215;-72
2022/06/12 01:01:39;;;;;;;8.50;6.35;;;18.90;99.90;;;;;;4998846;28;20224;-70
2022/06/12 01:06:54;;;;;;;10.35;5.57;;;18.70;99.90;;;;;;4997060;28;20299;-70
2022/06/12 01:09:24;;;;;;;7.32;5.05;;;18.80;99.90;;;;;;5009882;28;20656;-70
2022/06/12 01:11:55;;;;;;;9.95;5.43;;;18.80;99.90;;;;;;5004329;28;20218;-70
2022/06/12 01:14:26;;;;;;;8.00;6.10;;;18.70;99.90;;;;;;5009170;28;20246;-70
2022/06/12 01:16:56;;;;;;;10.75;6.43;;;18.70;99.90;;;;;;5000760;28;20679;-70
2022/06/12 01:19:28;;;;;;;7.50;5.47;;;18.70;99.90;;;;;;5007832;28;20231;-69
2022/06/12 01:22:11;;;;;;;10.73;6.40;;;18.60;99.90;;;;;;5004819;28;20216;-71
2022/06/12 01:25:10;;;;;;;9.55;5.85;;;18.70;99.90;;;;;;5000019;28;20586;-70
2022/06/12 01:27:57;;;;;;;7.18;5.30;;;18.60;99.90;;;;;;4990784;28;20652;-70
2022/06/12 01:30:34;;;;;;;8.43;5.22;;;18.60;99.90;;;;;;5003288;28;20224;-70
2022/06/12 01:33:11;;;;;;;8.57;5.95;;;18.60;99.90;;;;;;5010696;28;20229;-71
2022/06/12 01:35:46;;;;;;;9.15;6.50;;;18.60;99.90;;;;;;5018715;28;20690;-70
2022/06/12 01:38:19;;;;;;;9.70;6.55;;;18.60;99.90;;;;;;5001526;28;20275;-70
2022/06/12 01:40:56;;;;;;;11.20;6.97;;;18.60;99.90;;;;;;5009930;28;20204;-69
2022/06/12 01:43:35;;;;;;;9.90;6.95;;;18.60;99.90;;;;;;5008706;28;20223;-71
2022/06/12 01:46:07;;;;;;;10.05;6.10;;;18.60;99.90;;;;;;5012655;28;20217;-69
2022/06/12 01:48:42;;;;;;;10.90;6.00;;;18.50;99.90;;;;;;5011713;28;20204;-70
2022/06/12 01:51:16;;;;;;;9.57;6.68;;;18.50;99.90;;;;;;5005163;28;20207;-71
2022/06/12 01:53:55;;;;;;;12.15;7.60;;;18.50;99.90;;;;;;5010424;28;20221;-70
2022/06/12 01:56:27;;;;;;;10.90;6.55;;;18.50;99.90;;;;;;5007796;28;20203;-69
2022/06/12 01:59:02;;;;;;;12.02;7.28;;;18.50;99.90;;;;;;5009344;28;20212;-70
2022/06/12 02:01:36;;;;;;;8.90;5.95;;;18.60;99.90;;;;;;4996215;28;20247;-70
2022/06/12 02:04:10;;;;;;;10.85;6.32;;;18.50;99.90;;;;;;5006384;28;20199;-69
2022/06/12 02:06:43;;;;;;;13.00;7.40;;;18.50;99.90;;;;;;5003592;28;20203;-69
2022/06/12 02:09:16;;;;;;;7.93;5.97;;;18.50;99.90;;;;;;4998597;28;20212;-69
2022/06/12 02:14:40;;;;;;;11.60;6.97;;;18.50;99.90;;;;;;5012828;28;20238;-69
2022/06/12 02:17:14;;;;;;;10.10;7.47;;;18.50;99.90;;;;;;5001087;28;20207;-70
2022/06/12 02:19:44;;;;;;;9.15;6.10;;;18.50;99.90;;;;;;5002640;28;20196;-70
2022/06/12 02:22:17;;;;;;;7.72;6.40;;;18.50;99.90;;;;;;5001814;28;20708;-69
2022/06/12 02:24:47;;;;;;;9.30;7.45;;;18.40;99.90;;;;;;4998814;28;20211;-70
2022/06/12 02:27:19;;;;;;;11.25;7.13;;;18.40;99.90;;;;;;5014622;28;20230;-69
2022/06/12 02:29:51;;;;;;;8.45;6.45;;;18.40;99.90;;;;;;4997359;28;20227;-69
2022/06/12 02:32:24;;;;;;;10.52;6.60;;;18.40;99.90;;;;;;5000377;28;20204;-69
2022/06/12 02:34:56;;;;;;;11.90;7.03;;;18.30;99.90;;;;;;5009599;28;20287;-70
2022/06/12 02:37:27;;;;;;;9.90;6.55;;;18.30;99.90;;;;;;5002569;28;20203;-70
2022/06/12 02:39:58;;;;;;;9.23;6.43;;;18.30;99.90;;;;;;5017439;28;20489;-70
2022/06/12 02:42:28;;;;;;;8.18;7.00;;;18.20;99.90;;;;;;4998410;28;20219;-70
2022/06/12 02:45:00;;;;;;;9.07;6.80;;;18.20;99.90;;;;;;5005776;28;20218;-73
2022/06/12 02:47:33;;;;;;;9.90;7.35;;;18.20;99.90;;;;;;5014451;28;20649;-69
2022/06/12 02:50:00;;;;;;;11.23;7.25;;;18.20;99.90;;;;;;5004121;28;20608;-70
2022/06/12 02:52:37;;;;;;;17.85;6.75;;;18.20;99.90;;;;;;5008971;28;20223;-70
2022/06/12 02:55:10;;;;;;;9.10;7.07;;;18.20;99.90;;;;;;4995118;28;20219;-70
2022/06/12 02:57:56;;;;;;;11.68;7.97;;;18.20;99.90;;;;;;4997513;28;20299;-70
2022/06/12 03:00:31;;;;;;;11.27;6.95;;;18.30;99.90;;;;;;5009497;28;20223;-69
2022/06/12 03:03:11;;;;;;;10.82;7.35;;;18.30;99.90;;;;;;4995710;28;20710;-70
2022/06/12 03:05:40;;;;;;;18.00;12.85;;;18.40;99.90;;;;;;4998287;28;20207;-70
2022/06/12 03:08:14;;;;;;;14.20;9.00;;;18.50;99.90;;;;;;5000023;28;20203;-70
2022/06/12 03:10:47;;;;;;;11.45;7.40;;;18.50;99.90;;;;;;5003216;28;20258;-71
2022/06/12 03:13:16;;;;;;;9.52;6.80;;;18.60;99.90;;;;;;4994616;28;20204;-70
2022/06/12 03:15:47;;;;;;;11.10;7.40;;;18.70;99.90;;;;;;5000391;28;20635;-70
2022/06/12 03:18:19;;;;;;;9.55;7.85;;;18.80;99.90;;;;;;5008288;28;20573;-70
2022/06/12 03:21:06;;;;;;;8.75;7.03;;;18.80;99.90;;;;;;4998578;28;20581;-70
2022/06/12 03:23:42;;;;;;;12.80;7.18;;;18.90;99.90;;;;;;5000905;28;20285;-70
2022/06/12 03:26:16;;;;;;;7.88;7.05;;;19.00;99.90;;;;;;5009504;28;20207;-70
2022/06/12 03:28:49;;;;;;;12.13;7.45;;;19.10;99.90;;;;;;4996888;28;20223;-70
2022/06/12 03:31:20;;;;;;;9.13;7.45;;;19.10;99.90;;;;;;4997182;28;20204;-70
2022/06/12 03:34:03;;;;;;;10.40;7.78;;;19.10;99.90;;;;;;4998157;28;20203;-70
2022/06/12 03:36:36;;;;;;;10.45;7.22;;;19.20;99.90;;;;;;4993898;28;20208;-70
2022/06/12 03:39:12;;;;;;;10.38;7.75;;;19.20;99.90;;;;;;5007027;28;20199;-70
2022/06/12 03:41:46;;;;;;;11.07;7.30;;;19.20;99.90;;;;;;4994848;28;20203;-70
2022/06/12 03:44:20;;;;;;;8.98;7.25;;;19.20;99.90;;;;;;5012069;28;20676;-70
2022/06/12 03:46:51;;;;;;;9.40;7.15;;;19.30;99.90;;;;;;5014314;28;20606;-69
2022/06/12 03:49:27;;;;;;;8.93;7.70;;;19.30;99.90;;;;;;4998649;28;20327;-70
2022/06/12 03:51:59;;;;;;;11.07;7.50;;;19.30;99.90;;;;;;4998845;28;20204;-69
2022/06/12 03:54:32;;;;;;;10.90;7.78;;;19.30;99.90;;;;;;5002481;28;20262;-69
2022/06/12 04:00:08;;;;;;;8.15;6.93;;;19.50;99.90;;;;;;4954009;29;20697;-69
2022/06/12 04:02:37;;;;;;;10.55;7.07;;;19.50;99.90;;;;;;4989855;28;20227;-70
2022/06/12 04:05:07;;;;;;;12.88;8.10;;;19.60;99.90;;;;;;5003468;28;20211;-70
2022/06/12 04:07:39;;;;;;;9.27;7.30;;;19.60;99.90;;;;;;5004149;28;20582;-70
2022/06/12 04:10:08;;;;;;;9.27;7.28;;;19.70;99.90;;;;;;4994339;28;20219;-70
2022/06/12 04:12:35;;;;;;;12.00;7.63;;;19.80;99.90;;;;;;4998349;28;20208;-70
2022/06/12 04:15:09;;;;;;;8.18;6.40;;;19.80;99.90;;;;;;5012253;28;20246;-70
2022/06/12 04:17:36;;;;;;;8.98;6.60;;;19.90;99.90;;;;;;5009253;28;20266;-70
2022/06/12 04:20:04;;;;;;;9.30;6.40;;;20.00;99.90;;;;;;4998731;28;20207;-69
2022/06/12 04:22:52;;;;;;;11.77;6.63;;;20.10;99.90;;;;;;4995000;28;20235;-69
2022/06/12 04:25:38;;;;;;;8.35;5.90;;;20.10;99.90;;;;;;4995386;28;20215;-70
2022/06/12 04:28:21;;;;;;;7.75;6.43;;;20.20;99.90;;;;;;5005433;28;20207;-72
2022/06/12 04:30:48;;;;;;;7.35;6.18;;;20.20;99.90;;;;;;5013070;28;20211;-73
2022/06/12 04:33:24;;;;;;;10.30;6.05;;;20.40;99.90;;;;;;5010306;28;20567;-72
2022/06/12 04:35:53;;;;;;;7.65;5.90;;;20.40;99.90;;;;;;5000665;28;20569;-72
2022/06/12 04:38:23;;;;;;;7.15;5.20;;;20.40;99.90;;;;;;5008433;28;20215;-72
2022/06/12 04:40:49;;;;;;;7.82;5.47;;;20.50;99.90;;;;;;4998298;28;20211;-67
2022/06/12 04:43:17;;;;;;;9.07;5.95;;;20.50;99.90;;;;;;5004980;28;20699;-68
2022/06/12 04:45:45;;;;;;;17.17;9.13;;;20.60;99.90;;;;;;5009974;28;20615;-70
2022/06/12 04:48:16;;;;;;;7.47;5.82;;;20.60;99.90;;;;;;5004182;28;20580;-67
2022/06/12 04:50:45;;;;;;;10.48;5.53;;;20.70;99.90;;;;;;4997553;28;20293;-67
2022/06/12 04:53:11;;;;;;;7.40;4.43;;;20.80;99.90;;;;;;4991759;28;20689;-68
2022/06/12 04:55:39;;;;;;;8.52;4.60;;;20.90;99.90;;;;;;4994366;28;20207;-67
2022/06/12 04:58:07;;;;;;;5.22;4.25;;;20.90;99.90;;;;;;4991465;28;20657;-68
2022/06/12 05:00:34;;;;;;;8.25;4.90;;;20.90;99.90;;;;;;4995280;28;20210;-68
2022/06/12 05:03:01;;;;;;;7.35;4.05;;;21.00;99.90;;;;;;4992536;28;20227;-67
2022/06/12 05:05:28;;;;;;;6.07;4.20;;;21.00;99.90;;;;;;5003363;28;20235;-67
2022/06/12 05:07:55;;;;;;;6.30;4.28;;;21.10;99.90;;;;;;4996384;28;20221;-67
2022/06/12 05:10:22;;;;;;;6.25;3.55;;;21.10;99.90;;;;;;4999414;28;20216;-68
2022/06/12 05:12:50;;;;;;;5.32;3.45;;;21.20;99.90;;;;;;4997898;28;20211;-68
2022/06/12 05:15:17;;;;;;;7.15;4.45;;;21.30;99.90;;;;;;5000507;28;20615;-67
2022/06/12 05:17:48;;;;;;;4.50;2.70;;;21.40;99.90;;;;;;5003394;28;20203;-67
2022/06/12 05:20:18;;;;;;;5.40;2.78;;;21.40;99.90;;;;;;4997042;28;20200;-68
2022/06/12 05:22:45;;;;;;;2.85;2.30;;;21.50;99.90;;;;;;5007457;28;20605;-68
2022/06/12 05:25:13;;;;;;;6.30;2.40;;;21.50;99.90;;;;;;5000494;28;20204;-68
2022/06/12 05:27:40;;;;;;;4.30;2.63;;;21.50;99.90;;;;;;4996025;28;20653;-68
2022/06/12 05:30:11;;;;;;;5.63;2.92;;;21.60;99.90;;;;;;5006597;28;20241;-69
2022/06/12 05:32:38;;;;;;;3.22;2.15;;;21.70;99.90;;;;;;4999963;28;20199;-68
2022/06/12 05:35:07;;;;;;;3.45;2.33;;;21.60;99.90;;;;;;4996171;28;20222;-68
2022/06/12 05:37:33;;;;;;;3.38;2.10;;;21.80;99.90;;;;;;4996081;28;20208;-69
2022/06/12 05:40:00;;;;;;;2.20;1.63;;;21.80;99.90;;;;;;5000951;28;20208;-68
2022/06/12 05:42:28;;;;;;;3.60;1.60;;;21.90;99.90;;;;;;4997014;28;20222;-68
2022/06/12 05:44:54;;;;;;;2.08;1.40;;;21.90;99.90;;;;;;4998956;28;20222;-68
2022/06/12 05:47:22;;;;;;;2.35;1.40;;;21.90;99.90;;;;;;5003594;28;20230;-67
2022/06/12 05:49:49;;;;;;;2.15;1.23;;;21.90;99.90;;;;;;4997422;28;20788;-67
2022/06/12 05:52:16;;;;;;;3.65;1.65;;;21.90;99.90;;;;;;4996954;28;20199;-68
2022/06/12 05:54:43;;;;;;;2.92;1.55;;;22.00;99.90;;;;;;4998864;28;20231;-67
2022/06/12 05:57:10;;;;;;;5.43;1.60;;;22.00;99.90;;;;;;5002461;28;20313;-68
2022/06/12 05:59:37;;;;;;;3.45;1.65;;;22.00;99.50;;;;;;5000753;28;20676;-67
2022/06/12 06:02:04;;;;;;;4.40;2.42;;;22.10;99.70;;;;;;4997372;28;20696;-67
2022/06/12 06:04:32;;;;;;;2.47;1.50;;;22.10;99.30;;;;;;4988172;28;20228;-67
2022/06/12 06:06:59;;;;;;;2.53;2.03;;;22.10;99.10;;;;;;5002278;28;20216;-69
2022/06/12 06:09:27;;;;;;;2.28;1.70;;;22.20;98.90;;;;;;4999842;28;20212;-67
2022/06/12 06:11:54;;;;;;;2.58;1.80;;;22.20;98.80;;;;;;4995247;28;20211;-67
2022/06/12 06:14:21;;;;;;;4.53;2.70;;;22.40;98.80;;;;;;5002138;28;20601;-69
2022/06/12 06:16:48;;;;;;;4.60;3.30;;;22.50;98.50;;;;;;4994278;28;20281;-68
2022/06/12 06:19:16;;;;;;;4.95;2.00;;;22.60;98.20;;;;;;4995771;28;20212;-69
2022/06/12 06:21:45;;;;;;;3.10;1.98;;;22.70;98.10;;;;;;4998420;28;20208;-67
2022/06/12 06:24:12;;;;;;;3.63;1.92;;;22.70;97.80;;;;;;4996162;28;20235;-67
2022/06/12 06:26:39;;;;;;;3.80;2.20;;;22.70;97.50;;;;;;4997935;28;20209;-68
2022/06/12 06:29:06;;;;;;;7.40;2.95;;;22.80;97.10;;;;;;4994569;28;20223;-70
2022/06/12 06:31:33;;;;;;;2.90;1.75;;;22.80;97.00;;;;;;5004598;28;20542;-68
2022/06/12 06:34:01;;;;;;;2.25;2.05;;;22.80;96.90;;;;;;5003495;28;20209;-70
2022/06/12 06:36:28;;;;;;;2.03;1.60;;;23.00;97.00;;;;;;5001159;28;20266;-68
2022/06/12 06:38:58;;;;;;;5.03;2.20;;;23.10;96.80;;;;;;4995775;28;20222;-69
2022/06/12 06:41:26;;;;;;;6.28;2.92;;;23.10;96.20;;;;;;5001187;28;20208;-70
2022/06/12 06:46:37;;;;;;;2.70;1.42;;;23.40;94.70;;;;;;5001608;28;20683;-69
2022/06/12 06:49:05;;;;;;;3.30;1.75;;;23.50;93.60;;;;;;5000069;28;20648;-73
2022/06/12 06:51:32;;;;;;;2.25;1.45;;;23.50;92.90;;;;;;5006469;28;20215;-72
2022/06/12 06:54:00;;;;;;;2.53;1.30;;;23.60;92.30;;;;;;5004235;28;20215;-70
2022/06/12 06:56:28;;;;;;;2.90;1.35;;;23.70;91.90;;;;;;5000462;28;20578;-70
2022/06/12 06:58:55;;;;;;;2.05;1.38;;;23.90;91.20;;;;;;4995586;28;20295;-69
2022/06/12 07:01:21;;;;;;;2.35;1.23;;;24.00;90.90;;;;;;4994920;28;20207;-70
2022/06/12 07:03:48;;;;;;;3.80;1.40;;;24.10;90.10;;;;;;5007378;28;20233;-70
2022/06/12 07:06:16;;;;;;;2.20;1.60;;;24.20;88.50;;;;;;4998209;28;20641;-69
2022/06/12 07:08:43;;;;;;;2.55;1.30;;;24.20;87.30;;;;;;4999248;28;20207;-68
2022/06/12 07:11:12;;;;;;;4.15;1.67;;;24.30;86.70;;;;;;4995953;28;20215;-68
2022/06/12 07:13:39;;;;;;;4.32;1.27;;;24.40;86.00;;;;;;5001552;28;20195;-69
2022/06/12 07:16:06;;;;;;;3.88;2.00;;;24.50;85.70;;;;;;4994722;28;20266;-73
2022/06/12 07:18:33;;;;;;;1.95;1.30;;;24.60;84.80;;;;;;4998074;28;20211;-70
2022/06/12 07:21:02;;;;;;;1.92;1.30;;;24.60;84.30;;;;;;4998736;28;20208;-70
2022/06/12 07:23:30;;;;;;;2.60;1.60;;;24.80;84.40;;;;;;4995585;28;20684;-69
2022/06/12 07:25:59;;;;;;;3.35;1.73;;;24.80;84.10;;;;;;4995191;28;20211;-70
2022/06/12 07:28:30;;;;;;;2.58;1.60;;;24.90;84.10;;;;;;4992658;28;20215;-70
2022/06/12 07:30:58;;;;;;;3.45;1.50;;;24.80;83.50;;;;;;4993237;28;20207;-69
2022/06/12 07:33:25;;;;;;;3.13;1.60;;;24.70;83.90;;;;;;4994607;28;20204;-68
2022/06/12 07:35:52;;;;;;;2.47;1.58;;;24.70;83.90;;;;;;4992727;28;20673;-71
2022/06/12 07:38:23;;;;;;;3.83;1.70;;;24.60;84.20;;;;;;4992438;28;20208;-68
2022/06/12 07:40:54;;;;;;;1.52;1.40;;;24.50;84.60;;;;;;4995558;28;20653;-70
2022/06/12 07:43:22;;;;;;;2.95;1.70;;;24.40;84.70;;;;;;4990867;28;20200;-70
2022/06/12 07:45:52;;;;;;;2.90;1.52;;;24.40;85.10;;;;;;4990657;28;20212;-70
2022/06/12 07:48:19;;;;;;;1.80;1.40;;;24.40;85.20;;;;;;4992063;28;20207;-70
2022/06/12 07:50:47;;;;;;;1.80;1.50;;;24.30;84.70;;;;;;4993221;28;20207;-70
2022/06/12 07:53:15;;;;;;;3.75;1.80;;;24.40;84.90;;;;;;4992523;28;20208;-70
2022/06/12 07:55:42;;;;;;;1.55;1.45;;;24.50;85.90;;;;;;4997505;28;20673;-70
2022/06/12 07:58:10;;;;;;;2.80;1.63;;;24.60;85.60;;;;;;4996482;28;20652;-71
2022/06/12 08:00:38;;;;;;;2.92;1.45;;;24.70;85.60;;;;;;4991862;28;20204;-70
2022/06/12 08:03:06;;;;;;;2.05;1.30;;;24.80;85.30;;;;;;4999618;28;20238;-70
2022/06/12 08:05:34;;;;;;;2.35;1.60;;;24.90;85.70;;;;;;4996704;28;20228;-70
2022/06/12 08:08:01;;;;;;;1.88;1.40;;;25.00;84.90;;;;;;4995994;28;20671;-70
2022/06/12 08:10:28;;;;;;;2.75;1.50;;;25.10;84.00;;;;;;4994312;28;20211;-70
2022/06/12 08:12:56;;;;;;;3.08;1.77;;;25.10;84.50;;;;;;4994166;28;20214;-71
2022/06/12 08:15:26;;;;;;;2.30;1.70;;;25.30;84.70;;;;;;4992363;28;20610;-72
2022/06/12 08:17:53;;;;;;;3.65;1.88;;;25.40;84.60;;;;;;4995713;28;20234;-72
2022/06/12 08:20:28;;;;;;;2.38;1.80;;;25.60;84.70;;;;;;4995080;28;20611;-71
2022/06/12 08:22:59;;;;;;;3.85;1.67;;;25.70;83.80;;;;;;4991219;28;20235;-71
2022/06/12 08:25:28;;;;;;;2.22;1.70;;;25.90;83.20;;;;;;5005003;28;20241;-70
2022/06/12 08:27:55;;;;;;;1.83;1.60;;;26.00;82.90;;;;;;4998349;28;20317;-71
2022/06/12 08:30:23;;;;;;;1.70;1.42;;;26.20;82.90;;;;;;4991939;28;20239;-71
2022/06/12 08:32:52;;;;;;;3.30;1.63;;;26.50;82.80;;;;;;4997483;28;20219;-69
2022/06/12 08:35:26;;;;;;;2.67;1.80;;;26.70;81.10;;;;;;4996184;28;20643;-70
2022/06/12 08:37:54;;;;;;;3.05;1.45;;;26.90;80.40;;;;;;4996136;28;20203;-70
2022/06/12 08:40:28;;;;;;;2.85;1.85;;;27.00;79.20;;;;;;4990576;28;20218;-69
2022/06/12 08:43:03;;;;;;;3.13;1.70;;;27.20;78.50;;;;;;4994788;28;21304;-70
2022/06/12 08:45:37;;;;;;;2.90;1.98;;;27.30;77.70;;;;;;4999832;28;20231;-69
2022/06/12 08:48:11;;;;;;;2.78;2.03;;;27.30;76.80;;;;;;4993536;28;20660;-70
2022/06/12 08:50:49;;;;;;;4.53;1.83;;;27.30;76.50;;;;;;4999066;28;20208;-70
2022/06/12 08:53:24;;;;;;;2.53;1.90;;;27.20;75.80;;;;;;4991520;28;20566;-71
2022/06/12 08:55:56;;;;;;;4.95;1.90;;;27.20;75.50;;;;;;5004222;28;20207;-71
2022/06/12 08:58:28;;;;;;;3.83;2.00;;;27.20;75.70;;;;;;4993651;28;20223;-71
2022/06/12 09:00:55;;;;;;;1.90;1.67;;;27.10;76.00;;;;;;5005858;28;20564;-69
2022/06/12 09:03:25;;;;;;;4.88;1.83;;;27.20;75.30;;;;;;4993702;28;20211;-69
2022/06/12 09:06:07;;;;;;;3.63;2.15;;;27.30;73.80;;;;;;4996214;28;20222;-69
2022/06/12 09:08:43;;;;;;;3.33;2.03;;;27.50;72.90;;;;;;4998965;28;20204;-68
2022/06/12 09:11:16;;;;;;;3.00;2.10;;;27.60;71.90;;;;;;4993438;28;20204;-68
2022/06/12 09:13:50;;;;;;;3.47;2.13;;;27.60;71.80;;;;;;4991405;28;20204;-69
2022/06/12 09:16:24;;;;;;;3.13;1.70;;;27.60;72.40;;;;;;4992497;28;20212;-68
2022/06/12 09:18:59;;;;;;;4.85;1.80;;;27.80;72.30;;;;;;4999038;28;20227;-69
2022/06/12 09:21:39;;;;;;;2.90;1.98;;;27.90;72.00;;;;;;4992705;28;20200;-70
2022/06/12 09:24:18;;;;;;;2.58;1.90;;;28.00;70.80;;;;;;4999584;28;20215;-68
2022/06/12 09:26:55;;;;;;;4.93;2.25;;;28.00;69.40;;;;;;5003250;28;20199;-69
2022/06/12 09:29:31;;;;;;;3.85;2.10;;;28.10;69.10;;;;;;5002871;28;20228;-69
2022/06/12 09:32:02;;;;;;;3.00;2.17;;;28.20;68.70;;;;;;4996277;28;20205;-69
2022/06/12 09:34:41;;;;;;;3.20;1.98;;;28.30;68.60;;;;;;5011590;28;20616;-73
2022/06/12 09:40:08;;;;;;;3.67;2.22;;;28.30;70.30;;;;;;5013281;28;20206;-72
2022/06/12 09:42:51;;;;;;;3.30;2.28;;;28.30;70.30;;;;;;5005700;28;20589;-72
2022/06/12 09:45:25;;;;;;;2.55;2.08;;;28.30;70.60;;;;;;4993712;28;20231;-71
2022/06/12 09:48:03;;;;;;;3.78;2.40;;;28.40;70.30;;;;;;5001314;28;20211;-72
2022/06/12 09:50:41;;;;;;;2.80;2.10;;;28.30;69.90;;;;;;5012812;28;20738;-72
2022/06/12 09:53:35;;;;;;;5.95;2.35;;;28.40;71.00;;;;;;5011758;28;20207;-72
2022/06/12 09:56:06;;;;;;;3.75;2.20;;;28.50;70.00;;;;;;5016048;28;20207;-72
2022/06/12 09:58:40;;;;;;;2.50;2.28;;;28.60;70.40;;;;;;5003492;28;20287;-72
2022/06/12 10:01:14;;;;;;;4.45;2.72;;;28.80;70.80;;;;;;5009843;28;20286;-72
2022/06/12 10:03:45;;;;;;;3.60;2.30;;;29.00;70.60;;;;;;5008386;28;20214;-71
2022/06/12 10:06:24;;;;;;;2.85;2.42;;;29.20;71.10;;;;;;5015684;28;20223;-72
2022/06/12 10:08:59;;;;;;;4.05;2.92;;;29.30;71.30;;;;;;5004651;28;20734;-73
2022/06/12 10:11:32;;;;;;;3.85;2.70;;;29.50;71.00;;;;;;4996415;28;20210;-73
2022/06/12 10:14:05;;;;;;;4.97;2.70;;;29.60;71.40;;;;;;4996846;28;20207;-72
2022/06/12 10:16:37;;;;;;;4.65;2.92;;;29.40;72.00;;;;;;4998731;28;20208;-72
2022/06/12 10:19:09;;;;;;;6.75;2.92;;;29.30;72.90;;;;;;5007624;28;20216;-73
2022/06/12 10:21:39;;;;;;;3.67;2.97;;;29.30;73.10;;;;;;5012365;28;20217;-72
2022/06/12 10:24:11;;;;;;;5.00;3.00;;;29.30;73.00;;;;;;5015485;28;20576;-72
2022/06/12 10:26:38;;;;;;;3.20;2.47;;;29.40;72.30;;;;;;5008879;28;20208;-73
2022/06/12 10:29:07;;;;;;;3.20;2.90;;;29.40;71.80;;;;;;5008017;28;20224;-72
2022/06/12 10:31:45;;;;;;;5.95;2.85;;;29.40;71.40;;;;;;5009981;28;20215;-72
2022/06/12 10:34:16;;;;;;;4.28;3.22;;;29.40;71.40;;;;;;5007862;28;20687;-72
2022/06/12 10:36:43;;;;;;;3.90;3.25;;;29.50;71.40;;;;;;4995671;28;20247;-72
2022/06/12 10:39:17;;;;;;;3.92;3.00;;;29.50;71.20;;;;;;4996544;28;20200;-72
2022/06/12 10:41:50;;;;;;;4.53;3.30;;;29.50;70.70;;;;;;4996008;28;20208;-73
2022/06/12 10:44:33;;;;;;;4.18;3.58;;;29.50;70.20;;;;;;5002340;28;20199;-72
2022/06/12 10:47:20;;;;;;;4.75;3.60;;;29.50;69.50;;;;;;5000436;28;20215;-72
2022/06/12 10:49:47;;;;;;;5.43;3.40;;;29.40;69.30;;;;;;4996221;28;20295;-72
2022/06/12 10:52:19;;;;;;;4.40;3.65;;;29.50;68.90;;;;;;5007763;28;20298;-72
2022/06/12 10:54:48;;;;;;;3.88;2.90;;;29.40;68.50;;;;;;5015526;28;20291;-72
2022/06/12 10:57:38;;;;;;;4.50;3.30;;;29.40;68.30;;;;;;5001667;28;20207;-72
2022/06/12 11:00:09;;;;;;;5.05;4.05;;;29.20;68.30;;;;;;5002487;28;20234;-73
2022/06/12 11:02:52;;;;;;;4.25;3.20;;;29.00;68.50;;;;;;4999946;28;20208;-72
2022/06/12 11:05:53;;;;;;;5.13;3.47;;;28.80;69.50;;;;;;4996824;28;20587;-72
2022/06/12 11:08:36;;;;;;;5.75;4.00;;;28.70;70.10;;;;;;4996960;28;20571;-72
2022/06/12 11:11:16;;;;;;;3.67;3.20;;;28.60;70.20;;;;;;5009746;28;20195;-72
2022/06/12 11:14:03;;;;;;;5.45;3.72;;;28.50;70.10;;;;;;5002425;28;20633;-72
2022/06/12 11:16:45;;;;;;;6.05;3.80;;;28.50;70.90;;;;;;5008468;28;20200;-72
2022/06/12 11:19:26;;;;;;;5.18;4.00;;;28.70;72.30;;;;;;5004566;28;20199;-72
2022/06/12 11:22:05;;;;;;;8.13;4.72;;;29.00;71.50;;;;;;5000575;28;20221;-72
2022/06/12 11:24:45;;;;;;;4.88;3.45;;;29.10;70.30;;;;;;5014104;28;20234;-71
2022/06/12 11:27:44;;;;;;;6.88;3.80;;;29.20;69.80;;;;;;5013848;28;20207;-71
2022/06/12 11:30:22;;;;;;;7.20;3.08;;;29.20;69.60;;;;;;5013966;28;20235;-72
2022/06/12 11:32:58;;;;;;;4.22;2.95;;;29.30;68.30;;;;;;5013366;28;20215;-71
2022/06/12 11:35:37;;;;;;;4.90;3.60;;;29.40;67.80;;;;;;4997537;28;20205;-72
2022/06/12 11:38:25;;;;;;;5.78;4.00;;;29.60;68.20;;;;;;5006545;28;20237;-71
2022/06/12 11:41:00;;;;;;;6.80;3.90;;;29.80;68.10;;;;;;5012481;28;20203;-71
2022/06/12 11:43:33;;;;;;;5.85;3.50;;;29.90;66.90;;;;;;5008331;28;20213;-72
2022/06/12 11:46:15;;;;;;;5.70;3.20;;;30.10;65.90;;;;;;5006395;28;20219;-71
2022/06/12 11:49:03;;;;;;;4.30;3.05;;;30.10;65.30;;;;;;5009566;28;20206;-71
2022/06/12 11:51:36;;;;;;;7.90;3.80;;;30.10;64.30;;;;;;5014593;28;20589;-72
2022/06/12 11:54:26;;;;;;;7.80;3.60;;;30.10;64.60;;;;;;5012181;28;20203;-71
2022/06/12 11:56:59;;;;;;;6.03;3.83;;;30.10;65.00;;;;;;5000484;28;20291;-72
2022/06/12 11:59:38;;;;;;;4.70;3.30;;;30.10;65.70;;;;;;5014026;28;20676;-72
2022/06/12 12:02:13;;;;;;;4.60;2.80;;;30.10;65.70;;;;;;5005335;28;20207;-72
2022/06/12 12:05:03;;;;;;;3.65;3.22;;;30.20;65.20;;;;;;5003526;28;20257;-71
2022/06/12 12:07:43;;;;;;;5.10;3.00;;;30.30;64.00;;;;;;5001421;28;20210;-72
2022/06/12 12:10:25;;;;;;;5.35;3.10;;;30.30;63.40;;;;;;4994199;28;20258;-71
2022/06/12 12:12:56;;;;;;;3.17;2.88;;;30.30;63.30;;;;;;4994658;28;20203;-71
2022/06/12 12:15:31;;;;;;;6.53;3.65;;;30.30;63.30;;;;;;4995506;28;20239;-72
2022/06/12 12:18:00;;;;;;;3.30;3.00;;;30.30;64.00;;;;;;4999633;28;20451;-71
2022/06/12 12:20:30;;;;;;;4.45;3.42;;;30.40;64.40;;;;;;4994974;28;20577;-72
2022/06/12 12:23:00;;;;;;;4.30;3.33;;;30.20;64.30;;;;;;4999335;28;20214;-70
2022/06/12 12:25:32;;;;;;;3.80;2.90;;;30.20;64.70;;;;;;5013633;28;20222;-70
2022/06/12 12:28:04;;;;;;;3.20;2.85;;;30.10;64.70;;;;;;5000399;28;20680;-71
2022/06/12 12:30:35;;;;;;;4.13;2.70;;;30.10;64.70;;;;;;5003049;28;20227;-69
2022/06/12 12:33:04;;;;;;;3.58;2.85;;;30.20;64.50;;;;;;4996380;28;20295;-71
2022/06/12 12:41:27;;;;;;;4.97;2.25;;;30.60;63.00;;;;;;4964421;28;20248;-70
2022/06/12 12:43:56;;;;;;;3.75;2.72;;;30.80;62.70;;;;;;4980429;28;20243;-70
2022/06/12 12:46:28;;;;;;;3.38;3.00;;;30.90;62.10;;;;;;5005972;28;20230;-69
2022/06/12 12:48:55;;;;;;;3.80;2.58;;;30.70;61.90;;;;;;5012658;28;20594;-69
2022/06/12 12:51:30;;;;;;;2.83;2.30;;;30.50;61.20;;;;;;5007319;28;20218;-70
2022/06/12 12:54:11;;;;;;;2.67;2.10;;;30.30;61.30;;;;;;5008755;28;20210;-68
2022/06/12 12:56:50;;;;;;;3.85;2.65;;;30.30;61.30;;;;;;4996316;28;20748;-69
2022/06/12 12:59:18;;;;;;;4.22;2.17;;;30.10;61.00;;;;;;5009251;28;20273;-70
2022/06/12 13:01:49;;;;;;;2.67;2.00;;;30.00;61.20;;;;;;5006134;28;20207;-71
2022/06/12 13:04:18;;;;;;;3.20;2.03;;;29.90;61.20;;;;;;5006417;28;20203;-72
2022/06/12 13:07:18;;;;;;;2.80;2.22;;;29.90;61.20;;;;;;4991933;28;20237;-71
2022/06/12 13:10:16;;;;;;;5.57;2.45;;;29.70;61.20;;;;;;4994549;28;20216;-69
2022/06/12 13:13:09;;;;;;;3.05;1.95;;;29.60;62.00;;;;;;5000380;28;20219;-70
2022/06/12 13:15:47;;;;;;;2.28;2.08;;;29.50;62.10;;;;;;4994662;28;20232;-71
2022/06/12 13:18:31;;;;;;;4.78;2.35;;;29.40;62.00;;;;;;4994937;28;20208;-68
2022/06/12 13:21:07;;;;;;;3.42;2.30;;;29.50;62.20;;;;;;4993187;28;20230;-70
2022/06/12 13:23:59;;;;;;;4.57;2.88;;;29.40;62.40;;;;;;4990771;28;20200;-70
2022/06/12 13:26:28;;;;;;;2.28;2.08;;;29.50;62.90;;;;;;4995631;28;20230;-69
2022/06/12 13:28:57;;;;;;;2.92;1.90;;;29.60;62.50;;;;;;4998740;28;20228;-69
2022/06/12 13:31:24;;;;;;;2.83;2.47;;;29.70;62.00;;;;;;4995644;28;20212;-69
2022/06/12 13:33:55;;;;;;;2.38;1.73;;;29.90;61.40;;;;;;5005012;28;20550;-68